sensor_id;sensor_type;location;lat;lon;timestamp;temperature;humidity
30300;DHT22;17110;52.602;12.998;2024-01-10T00:00:44;-9.30;99.90
30300;DHT22;17110;52.602;12.998;2024-01-10T00:05:46;-9.30;99.90
30300;DHT22;17110;52.602;12.998;2024-01-10T00:10:46;-9.30;99.90
30300;DHT22;17110;52.602;12.998;2024-01-10T00:15:48;-9.30;99.90
30300;DHT22;17110;52.602;12.998;2024-01-10T00:20:50;-9.40;99.90
30300;DHT22;17110;52.602;12.998;2024-01-10T00:25:50;-9.40;99.90
30300;DHT22;17110;52.602;12.998;2024-01-10T00:30:51;-9.40;99.90
30300;DHT22;17110;52.602;12.998;2024-01-10T00:35:53;-9.40;99.90
30300;DHT22;17110;52.602;12.998;2024-01-10T00:40:53;-9.40;99.90
30300;DHT22;17110;52.602;12.998;2024-01-10T00:45:54;-9.30;99.90
30300;DHT22;17110;52.602;12.998;2024-01-10T00:50:56;-9.30;99.90
30300;DHT22;17110;52.602;12.998;2024-01-10T00:55:57;-9.40;99.90
30300;DHT22;17110;52.602;12.998;2024-01-10T01:00:57;-9.40;99.90
30300;DHT22;17110;52.602;12.998;2024-01-10T01:05:59;-9.40;99.90
30300;DHT22;17110;52.602;12.998;2024-01-10T01:11:00;-9.40;99.90
30300;DHT22;17110;52.602;12.998;2024-01-10T01:16:01;-9.40;99.90
30300;DHT22;17110;52.602;12.998;2024-01-10T01:21:03;-9.40;99.90
30300;DHT22;17110;52.602;12.998;2024-01-10T01:26:04;-9.50;99.90
30300;DHT22;17110;52.602;12.998;2024-01-10T01:31:05;-9.50;99.90
30300;DHT22;17110;52.602;12.998;2024-01-10T01:36:07;-9.50;99.90
30300;DHT22;17110;52.602;12.998;2024-01-10T01:41:07;-9.60;99.90
30300;DHT22;17110;52.602;12.998;2024-01-10T01:46:08;-9.60;99.90
30300;DHT22;17110;52.602;12.998;2024-01-10T01:51:11;-9.60;99.90
30300;DHT22;17110;52.602;12.998;2024-01-10T01:56:13;-9.60;99.90
30300;DHT22;17110;52.602;12.998;2024-01-10T02:01:14;-9.60;99.90
30300;DHT22;17110;52.602;12.998;2024-01-10T02:06:16;-9.70;99.90
30300;DHT22;17110;52.602;12.998;2024-01-10T02:11:17;-9.70;99.90
30300;DHT22;17110;52.602;12.998;2024-01-10T02:16:17;-9.60;99.90
30300;DHT22;17110;52.602;12.998;2024-01-10T02:21:22;-9.70;99.90
30300;DHT22;17110;52.602;12.998;2024-01-10T02:26:24;-9.80;99.90
30300;DHT22;17110;52.602;12.998;2024-01-10T02:31:24;-9.80;99.90
30300;DHT22;17110;52.602;12.998;2024-01-10T02:36:25;-9.80;99.90
30300;DHT22;17110;52.602;12.998;2024-01-10T02:41:27;-9.90;99.90
30300;DHT22;17110;52.602;12.998;2024-01-10T02:46:28;-9.80;99.90
30300;DHT22;17110;52.602;12.998;2024-01-10T02:51:28;-9.80;99.90
30300;DHT22;17110;52.602;12.998;2024-01-10T02:56:30;-9.70;99.90
30300;DHT22;17110;52.602;12.998;2024-01-10T03:01:31;-9.70;99.90
30300;DHT22;17110;52.602;12.998;2024-01-10T03:06:31;-9.60;99.90
30300;DHT22;17110;52.602;12.998;2024-01-10T03:11:33;-9.60;99.90
30300;DHT22;17110;52.602;12.998;2024-01-10T03:16:34;-9.60;99.90
30300;DHT22;17110;52.602;12.998;2024-01-10T03:21:35;-9.60;99.90
30300;DHT22;17110;52.602;12.998;2024-01-10T03:26:37;-9.50;99.90
30300;DHT22;17110;52.602;12.998;2024-01-10T03:31:37;-9.50;99.90
30300;DHT22;17110;52.602;12.998;2024-01-10T03:36:38;-9.50;99.90
30300;DHT22;17110;52.602;12.998;2024-01-10T03:41:40;-9.50;99.90
30300;DHT22;17110;52.602;12.998;2024-01-10T03:46:40;-9.50;99.90
30300;DHT22;17110;52.602;12.998;2024-01-10T03:51:41;-9.40;99.90
30300;DHT22;17110;52.602;12.998;2024-01-10T03:56:43;-9.40;99.90
30300;DHT22;17110;52.602;12.998;2024-01-10T04:01:44;-9.30;99.90
30300;DHT22;17110;52.602;12.998;2024-01-10T04:06:44;-9.20;99.90
30300;DHT22;17110;52.602;12.998;2024-01-10T04:11:46;-9.20;99.90
30300;DHT22;17110;52.602;12.998;2024-01-10T04:16:47;-9.20;99.90
30300;DHT22;17110;52.602;12.998;2024-01-10T04:21:47;-9.20;99.90
30300;DHT22;17110;52.602;12.998;2024-01-10T04:26:49;-9.10;99.90
30300;DHT22;17110;52.602;12.998;2024-01-10T04:31:50;-9.10;99.90
30300;DHT22;17110;52.602;12.998;2024-01-10T04:36:51;-9.20;99.90
30300;DHT22;17110;52.602;12.998;2024-01-10T04:41:53;-9.30;99.90
30300;DHT22;17110;52.602;12.998;2024-01-10T04:46:54;-9.30;99.90
30300;DHT22;17110;52.602;12.998;2024-01-10T04:51:54;-9.30;99.90
30300;DHT22;17110;52.602;12.998;2024-01-10T04:56:56;-9.30;99.90
30300;DHT22;17110;52.602;12.998;2024-01-10T05:01:57;-9.30;99.90
30300;DHT22;17110;52.602;12.998;2024-01-10T05:06:58;-9.30;99.90
30300;DHT22;17110;52.602;12.998;2024-01-10T05:12:00;-9.30;99.90
30300;DHT22;17110;52.602;12.998;2024-01-10T05:17:00;-9.40;99.90
30300;DHT22;17110;52.602;12.998;2024-01-10T05:22:01;-9.50;99.90
30300;DHT22;17110;52.602;12.998;2024-01-10T05:27:04;-9.50;99.90
30300;DHT22;17110;52.602;12.998;2024-01-10T05:32:05;-9.40;99.90
30300;DHT22;17110;52.602;12.998;2024-01-10T05:37:05;-9.40;99.90
30300;DHT22;17110;52.602;12.998;2024-01-10T05:42:07;-9.40;99.90
30300;DHT22;17110;52.602;12.998;2024-01-10T05:47:08;-9.40;99.90
30300;DHT22;17110;52.602;12.998;2024-01-10T05:52:09;-9.40;99.90
30300;DHT22;17110;52.602;12.998;2024-01-10T05:57:11;-9.30;99.90
30300;DHT22;17110;52.602;12.998;2024-01-10T06:02:11;-9.40;99.90
30300;DHT22;17110;52.602;12.998;2024-01-10T06:07:12;-9.40;99.90
30300;DHT22;17110;52.602;12.998;2024-01-10T06:12:14;-9.40;99.90
30300;DHT22;17110;52.602;12.998;2024-01-10T06:17:15;-9.40;99.90
30300;DHT22;17110;52.602;12.998;2024-01-10T06:22:15;-9.40;99.90
30300;DHT22;17110;52.602;12.998;2024-01-10T06:27:17;-9.40;99.90
30300;DHT22;17110;52.602;12.998;2024-01-10T06:32:18;-9.50;99.90
30300;DHT22;17110;52.602;12.998;2024-01-10T06:37:18;-9.60;99.90
30300;DHT22;17110;52.602;12.998;2024-01-10T06:42:20;-9.60;99.90
30300;DHT22;17110;52.602;12.998;2024-01-10T06:47:21;-9.60;99.90
30300;DHT22;17110;52.602;12.998;2024-01-10T06:52:22;-9.70;99.90
30300;DHT22;17110;52.602;12.998;2024-01-10T06:57:24;-9.70;99.90
30300;DHT22;17110;52.602;12.998;2024-01-10T07:02:24;-9.70;99.90
30300;DHT22;17110;52.602;12.998;2024-01-10T07:07:25;-9.70;99.90
30300;DHT22;17110;52.602;12.998;2024-01-10T07:12:27;-9.80;99.90
30300;DHT22;17110;52.602;12.998;2024-01-10T07:17:27;-9.70;99.90
30300;DHT22;17110;52.602;12.998;2024-01-10T07:22:28;-9.70;99.90
30300;DHT22;17110;52.602;12.998;2024-01-10T07:27:30;-9.70;99.90
30300;DHT22;17110;52.602;12.998;2024-01-10T07:32:30;-9.60;99.90
30300;DHT22;17110;52.602;12.998;2024-01-10T07:37:31;-9.60;99.90
30300;DHT22;17110;52.602;12.998;2024-01-10T07:42:34;-9.60;99.90
30300;DHT22;17110;52.602;12.998;2024-01-10T07:47:35;-9.60;99.90
30300;DHT22;17110;52.602;12.998;2024-01-10T07:52:36;-9.50;99.90
30300;DHT22;17110;52.602;12.998;2024-01-10T07:57:38;-9.40;99.90
30300;DHT22;17110;52.602;12.998;2024-01-10T08:02:39;-9.40;99.90
30300;DHT22;17110;52.602;12.998;2024-01-10T08:07:40;-9.20;99.90
30300;DHT22;17110;52.602;12.998;2024-01-10T08:12:42;-9.00;99.90
30300;DHT22;17110;52.602;12.998;2024-01-10T08:17:42;-8.70;99.90
30300;DHT22;17110;52.602;12.998;2024-01-10T08:22:43;-8.50;99.90
30300;DHT22;17110;52.602;12.998;2024-01-10T08:27:45;-8.30;99.90
30300;DHT22;17110;52.602;12.998;2024-01-10T08:32:46;-8.00;99.90
30300;DHT22;17110;52.602;12.998;2024-01-10T08:37:46;-7.80;99.90
30300;DHT22;17110;52.602;12.998;2024-01-10T08:42:48;-7.50;99.90
30300;DHT22;17110;52.602;12.998;2024-01-10T08:47:49;-7.40;99.90
30300;DHT22;17110;52.602;12.998;2024-01-10T08:52:49;-7.30;99.90
30300;DHT22;17110;52.602;12.998;2024-01-10T08:57:51;-7.20;99.90
30300;DHT22;17110;52.602;12.998;2024-01-10T09:02:52;-7.00;99.90
30300;DHT22;17110;52.602;12.998;2024-01-10T09:07:53;-7.00;99.90
30300;DHT22;17110;52.602;12.998;2024-01-10T09:12:55;-6.80;99.90
30300;DHT22;17110;52.602;12.998;2024-01-10T09:17:55;-6.60;99.90
30300;DHT22;17110;52.602;12.998;2024-01-10T09:22:56;-6.40;99.90
30300;DHT22;17110;52.602;12.998;2024-01-10T09:27:58;-6.20;99.90
30300;DHT22;17110;52.602;12.998;2024-01-10T09:32:58;-5.90;99.90
30300;DHT22;17110;52.602;12.998;2024-01-10T09:37:59;-5.80;99.90
30300;DHT22;17110;52.602;12.998;2024-01-10T09:43:01;-5.60;99.90
30300;DHT22;17110;52.602;12.998;2024-01-10T09:48:03;-5.40;99.90
30300;DHT22;17110;52.602;12.998;2024-01-10T09:53:06;-5.20;99.90
30300;DHT22;17110;52.602;12.998;2024-01-10T09:58:08;-5.00;99.90
30300;DHT22;17110;52.602;12.998;2024-01-10T10:03:10;-5.00;99.90
30300;DHT22;17110;52.602;12.998;2024-01-10T10:08:11;-4.90;99.90
30300;DHT22;17110;52.602;12.998;2024-01-10T10:13:24;-4.80;99.90
30300;DHT22;17110;52.602;12.998;2024-01-10T10:18:25;-4.70;99.90
30300;DHT22;17110;52.602;12.998;2024-01-10T10:23:26;-4.50;99.90
30300;DHT22;17110;52.602;12.998;2024-01-10T10:28:29;-4.30;99.90
30300;DHT22;17110;52.602;12.998;2024-01-10T10:33:32;-4.20;99.90
30300;DHT22;17110;52.602;12.998;2024-01-10T10:38:33;-4.20;99.90
30300;DHT22;17110;52.602;12.998;2024-01-10T10:43:35;-4.00;99.90
30300;DHT22;17110;52.602;12.998;2024-01-10T10:48:36;-3.80;99.90
30300;DHT22;17110;52.602;12.998;2024-01-10T10:53:38;-3.70;99.90
30300;DHT22;17110;52.602;12.998;2024-01-10T10:58:41;-3.50;99.90
30300;DHT22;17110;52.602;12.998;2024-01-10T11:03:42;-3.40;99.90
30300;DHT22;17110;52.602;12.998;2024-01-10T11:08:45;-3.30;99.90
30300;DHT22;17110;52.602;12.998;2024-01-10T11:14:01;-3.20;99.90
30300;DHT22;17110;52.602;12.998;2024-01-10T11:19:22;-3.00;99.90
30300;DHT22;17110;52.602;12.998;2024-01-10T11:24:28;-2.70;99.90
30300;DHT22;17110;52.602;12.998;2024-01-10T11:29:30;-2.50;99.90
30300;DHT22;17110;52.602;12.998;2024-01-10T11:34:31;-2.40;99.90
30300;DHT22;17110;52.602;12.998;2024-01-10T11:39:32;-2.30;99.90
30300;DHT22;17110;52.602;12.998;2024-01-10T11:44:33;-2.30;99.90
30300;DHT22;17110;52.602;12.998;2024-01-10T11:49:34;-2.20;99.90
30300;DHT22;17110;52.602;12.998;2024-01-10T11:54:36;-2.00;99.90
30300;DHT22;17110;52.602;12.998;2024-01-10T11:59:39;-1.90;99.90
30300;DHT22;17110;52.602;12.998;2024-01-10T12:04:41;-1.90;99.90
30300;DHT22;17110;52.602;12.998;2024-01-10T12:09:42;-1.80;99.90
30300;DHT22;17110;52.602;12.998;2024-01-10T12:14:44;-1.80;99.90
30300;DHT22;17110;52.602;12.998;2024-01-10T12:19:44;-1.80;99.90
30300;DHT22;17110;52.602;12.998;2024-01-10T12:24:47;-1.60;99.90
30300;DHT22;17110;52.602;12.998;2024-01-10T12:29:50;-1.60;99.90
30300;DHT22;17110;52.602;12.998;2024-01-10T12:34:55;-1.50;99.90
30300;DHT22;17110;52.602;12.998;2024-01-10T12:39:58;-1.40;99.90
30300;DHT22;17110;52.602;12.998;2024-01-10T12:45:00;-1.40;99.90
30300;DHT22;17110;52.602;12.998;2024-01-10T12:50:00;-1.40;99.90
30300;DHT22;17110;52.602;12.998;2024-01-10T12:55:01;-1.40;99.90
30300;DHT22;17110;52.602;12.998;2024-01-10T13:00:04;-1.30;99.90
30300;DHT22;17110;52.602;12.998;2024-01-10T13:05:05;-1.10;99.90
30300;DHT22;17110;52.602;12.998;2024-01-10T13:10:06;-1.10;99.90
30300;DHT22;17110;52.602;12.998;2024-01-10T13:15:09;-1.20;99.90
30300;DHT22;17110;52.602;12.998;2024-01-10T13:20:10;-1.20;99.90
30300;DHT22;17110;52.602;12.998;2024-01-10T13:25:11;-1.10;99.90
30300;DHT22;17110;52.602;12.998;2024-01-10T13:30:13;-1.10;99.90
30300;DHT22;17110;52.602;12.998;2024-01-10T13:35:14;-1.20;99.90
30300;DHT22;17110;52.602;12.998;2024-01-10T13:40:15;-1.10;99.90
30300;DHT22;17110;52.602;12.998;2024-01-10T13:45:17;-1.20;99.90
30300;DHT22;17110;52.602;12.998;2024-01-10T13:50:18;-1.10;99.90
30300;DHT22;17110;52.602;12.998;2024-01-10T13:55:19;-1.20;99.90
30300;DHT22;17110;52.602;12.998;2024-01-10T14:00:21;-1.20;99.90
30300;DHT22;17110;52.602;12.998;2024-01-10T14:05:22;-1.20;99.90
30300;DHT22;17110;52.602;12.998;2024-01-10T14:10:23;-1.20;99.90
30300;DHT22;17110;52.602;12.998;2024-01-10T14:15:24;-1.20;99.90
30300;DHT22;17110;52.602;12.998;2024-01-10T14:20:25;-1.20;99.90
30300;DHT22;17110;52.602;12.998;2024-01-10T14:25:26;-1.30;99.90
30300;DHT22;17110;52.602;12.998;2024-01-10T14:30:28;-1.30;99.90
30300;DHT22;17110;52.602;12.998;2024-01-10T14:35:28;-1.50;99.90
30300;DHT22;17110;52.602;12.998;2024-01-10T14:40:29;-1.50;99.90
30300;DHT22;17110;52.602;12.998;2024-01-10T14:45:31;-1.60;99.90
30300;DHT22;17110;52.602;12.998;2024-01-10T14:50:31;-1.70;99.90
30300;DHT22;17110;52.602;12.998;2024-01-10T14:55:32;-1.80;99.90
30300;DHT22;17110;52.602;12.998;2024-01-10T15:00:34;-1.90;99.90
30300;DHT22;17110;52.602;12.998;2024-01-10T15:05:35;-2.00;99.90
30300;DHT22;17110;52.602;12.998;2024-01-10T15:10:35;-2.20;99.90
30300;DHT22;17110;52.602;12.998;2024-01-10T15:15:38;-2.30;99.90
30300;DHT22;17110;52.602;12.998;2024-01-10T15:20:39;-2.40;99.90
30300;DHT22;17110;52.602;12.998;2024-01-10T15:25:39;-2.60;99.90
30300;DHT22;17110;52.602;12.998;2024-01-10T15:30:41;-2.70;99.90
30300;DHT22;17110;52.602;12.998;2024-01-10T15:35:42;-2.90;99.90
30300;DHT22;17110;52.602;12.998;2024-01-10T15:40:43;-3.20;99.90
30300;DHT22;17110;52.602;12.998;2024-01-10T15:45:45;-3.30;99.90
30300;DHT22;17110;52.602;12.998;2024-01-10T15:50:46;-3.50;99.90
30300;DHT22;17110;52.602;12.998;2024-01-10T15:55:46;-3.70;99.90
30300;DHT22;17110;52.602;12.998;2024-01-10T16:00:48;-3.80;99.90
30300;DHT22;17110;52.602;12.998;2024-01-10T16:05:49;-4.00;99.90
30300;DHT22;17110;52.602;12.998;2024-01-10T16:10:50;-4.10;99.90
30300;DHT22;17110;52.602;12.998;2024-01-10T16:15:54;-4.30;99.90
30300;DHT22;17110;52.602;12.998;2024-01-10T16:20:55;-4.40;99.90
30300;DHT22;17110;52.602;12.998;2024-01-10T16:25:57;-4.50;99.90
30300;DHT22;17110;52.602;12.998;2024-01-10T16:30:59;-4.60;99.90
30300;DHT22;17110;52.602;12.998;2024-01-10T16:35:59;-4.70;99.90
30300;DHT22;17110;52.602;12.998;2024-01-10T16:41:01;-4.80;99.90
30300;DHT22;17110;52.602;12.998;2024-01-10T16:46:03;-4.90;99.90
30300;DHT22;17110;52.602;12.998;2024-01-10T16:51:04;-5.10;99.90
30300;DHT22;17110;52.602;12.998;2024-01-10T16:56:06;-5.10;99.90
30300;DHT22;17110;52.602;12.998;2024-01-10T17:01:08;-5.20;99.90
30300;DHT22;17110;52.602;12.998;2024-01-10T17:06:11;-5.30;99.90
30300;DHT22;17110;52.602;12.998;2024-01-10T17:11:11;-5.40;99.90
30300;DHT22;17110;52.602;12.998;2024-01-10T17:16:13;-5.50;99.90
30300;DHT22;17110;52.602;12.998;2024-01-10T17:21:14;-5.50;99.90
30300;DHT22;17110;52.602;12.998;2024-01-10T17:26:15;-5.60;99.90
30300;DHT22;17110;52.602;12.998;2024-01-10T17:31:17;-5.60;99.90
30300;DHT22;17110;52.602;12.998;2024-01-10T17:36:17;-5.80;99.90
30300;DHT22;17110;52.602;12.998;2024-01-10T17:41:18;-5.80;99.90
30300;DHT22;17110;52.602;12.998;2024-01-10T17:46:20;-5.90;99.90
30300;DHT22;17110;52.602;12.998;2024-01-10T17:51:21;-6.00;99.90
30300;DHT22;17110;52.602;12.998;2024-01-10T17:56:21;-6.10;99.90
30300;DHT22;17110;52.602;12.998;2024-01-10T18:01:23;-6.20;99.90
30300;DHT22;17110;52.602;12.998;2024-01-10T18:06:24;-6.30;99.90
30300;DHT22;17110;52.602;12.998;2024-01-10T18:11:25;-6.30;99.90
30300;DHT22;17110;52.602;12.998;2024-01-10T18:16:26;-6.40;99.90
30300;DHT22;17110;52.602;12.998;2024-01-10T18:21:27;-6.50;99.90
30300;DHT22;17110;52.602;12.998;2024-01-10T18:26:28;-6.60;99.90
30300;DHT22;17110;52.602;12.998;2024-01-10T18:31:30;-6.60;99.90
30300;DHT22;17110;52.602;12.998;2024-01-10T18:36:30;-6.60;99.90
30300;DHT22;17110;52.602;12.998;2024-01-10T18:41:31;-6.70;99.90
30300;DHT22;17110;52.602;12.998;2024-01-10T18:46:33;-6.70;99.90
30300;DHT22;17110;52.602;12.998;2024-01-10T18:51:33;-6.70;99.90
30300;DHT22;17110;52.602;12.998;2024-01-10T18:56:34;-6.80;99.90
30300;DHT22;17110;52.602;12.998;2024-01-10T19:01:36;-6.90;99.90
30300;DHT22;17110;52.602;12.998;2024-01-10T19:06:37;-6.90;99.90
30300;DHT22;17110;52.602;12.998;2024-01-10T19:11:37;-7.00;99.90
30300;DHT22;17110;52.602;12.998;2024-01-10T19:16:39;-7.10;99.90
30300;DHT22;17110;52.602;12.998;2024-01-10T19:21:40;-7.10;99.90
30300;DHT22;17110;52.602;12.998;2024-01-10T19:26:41;-7.20;99.90
30300;DHT22;17110;52.602;12.998;2024-01-10T19:31:43;-7.20;99.90
30300;DHT22;17110;52.602;12.998;2024-01-10T19:36:43;-7.30;99.90
30300;DHT22;17110;52.602;12.998;2024-01-10T19:41:44;-7.40;99.90
30300;DHT22;17110;52.602;12.998;2024-01-10T19:46:46;-7.30;99.90
30300;DHT22;17110;52.602;12.998;2024-01-10T19:51:47;-7.40;99.90
30300;DHT22;17110;52.602;12.998;2024-01-10T19:56:47;-7.40;99.90
30300;DHT22;17110;52.602;12.998;2024-01-10T20:01:49;-7.50;99.90
30300;DHT22;17110;52.602;12.998;2024-01-10T20:06:50;-7.50;99.90
30300;DHT22;17110;52.602;12.998;2024-01-10T20:11:50;-7.50;99.90
30300;DHT22;17110;52.602;12.998;2024-01-10T20:16:52;-7.60;99.90
30300;DHT22;17110;52.602;12.998;2024-01-10T20:21:53;-7.60;99.90
30300;DHT22;17110;52.602;12.998;2024-01-10T20:26:54;-7.60;99.90
30300;DHT22;17110;52.602;12.998;2024-01-10T20:31:56;-7.70;99.90
30300;DHT22;17110;52.602;12.998;2024-01-10T20:36:56;-7.70;99.90
30300;DHT22;17110;52.602;12.998;2024-01-10T20:41:57;-7.80;99.90
30300;DHT22;17110;52.602;12.998;2024-01-10T20:46:59;-7.80;99.90
30300;DHT22;17110;52.602;12.998;2024-01-10T20:52:00;-7.80;99.90
30300;DHT22;17110;52.602;12.998;2024-01-10T20:57:01;-7.90;99.90
30300;DHT22;17110;52.602;12.998;2024-01-10T21:02:03;-7.90;99.90
30300;DHT22;17110;52.602;12.998;2024-01-10T21:07:04;-7.90;99.90
30300;DHT22;17110;52.602;12.998;2024-01-10T21:12:06;-8.00;99.90
30300;DHT22;17110;52.602;12.998;2024-01-10T21:17:10;-8.00;99.90
30300;DHT22;17110;52.602;12.998;2024-01-10T21:22:11;-8.10;99.90
30300;DHT22;17110;52.602;12.998;2024-01-10T21:27:12;-8.10;99.90
30300;DHT22;17110;52.602;12.998;2024-01-10T21:32:14;-8.20;99.90
30300;DHT22;17110;52.602;12.998;2024-01-10T21:37:14;-8.20;99.90
30300;DHT22;17110;52.602;12.998;2024-01-10T21:42:15;-8.20;99.90
30300;DHT22;17110;52.602;12.998;2024-01-10T21:47:17;-8.20;99.90
30300;DHT22;17110;52.602;12.998;2024-01-10T21:52:18;-8.20;99.90
30300;DHT22;17110;52.602;12.998;2024-01-10T21:57:18;-8.30;99.90
30300;DHT22;17110;52.602;12.998;2024-01-10T22:02:20;-8.30;99.90
30300;DHT22;17110;52.602;12.998;2024-01-10T22:07:21;-8.30;99.90
30300;DHT22;17110;52.602;12.998;2024-01-10T22:12:21;-8.30;99.90
30300;DHT22;17110;52.602;12.998;2024-01-10T22:17:23;-8.30;99.90
30300;DHT22;17110;52.602;12.998;2024-01-10T22:22:24;-8.30;99.90
30300;DHT22;17110;52.602;12.998;2024-01-10T22:27:25;-8.40;99.90
30300;DHT22;17110;52.602;12.998;2024-01-10T22:32:27;-8.30;99.90
30300;DHT22;17110;52.602;12.998;2024-01-10T22:37:27;-8.40;99.90
30300;DHT22;17110;52.602;12.998;2024-01-10T22:42:28;-8.40;99.90
30300;DHT22;17110;52.602;12.998;2024-01-10T22:47:30;-8.40;99.90
30300;DHT22;17110;52.602;12.998;2024-01-10T22:52:31;-8.50;99.90
30300;DHT22;17110;52.602;12.998;2024-01-10T22:57:31;-8.60;99.90
30300;DHT22;17110;52.602;12.998;2024-01-10T23:02:33;-8.70;99.90
30300;DHT22;17110;52.602;12.998;2024-01-10T23:07:34;-8.70;99.90
30300;DHT22;17110;52.602;12.998;2024-01-10T23:12:35;-8.70;99.90
30300;DHT22;17110;52.602;12.998;2024-01-10T23:17:38;-8.80;99.90
30300;DHT22;17110;52.602;12.998;2024-01-10T23:22:39;-8.80;99.90
30300;DHT22;17110;52.602;12.998;2024-01-10T23:27:41;-8.70;99.90
30300;DHT22;17110;52.602;12.998;2024-01-10T23:32:43;-8.70;99.90
30300;DHT22;17110;52.602;12.998;2024-01-10T23:37:44;-8.60;99.90
30300;DHT22;17110;52.602;12.998;2024-01-10T23:42:44;-8.60;99.90
30300;DHT22;17110;52.602;12.998;2024-01-10T23:47:46;-8.70;99.90
30300;DHT22;17110;52.602;12.998;2024-01-10T23:52:47;-8.80;99.90
30300;DHT22;17110;52.602;12.998;2024-01-10T23:57:47;-8.80;99.90
